Time;durP1;ratioP1;P1;durP2;ratioP2;P2;SDS_P1;SDS_P2;PMS_P1;PMS_P2;Temp;Humidity;BMP_temperature;BMP_pressure;BME280_temperature;BME280_humidity;BME280_pressure;Samples;Min_cycle;Max_cycle;Signal;HPM_P1;HPM_P2
2022/08/22 00:01:41;;;;;;;4.88;2.17;;;16.70;99.90;;;;;;4931832;29;20047;-65
2022/08/22 00:04:21;;;;;;;6.78;2.45;;;16.70;99.90;;;;;;4932088;29;20581;-66
2022/08/22 00:07:00;;;;;;;6.88;2.75;;;16.60;99.90;;;;;;4933060;29;20403;-65
2022/08/22 00:09:43;;;;;;;7.75;2.90;;;16.50;99.90;;;;;;4933922;29;20465;-63
2022/08/22 00:12:35;;;;;;;8.05;2.80;;;16.40;99.90;;;;;;4954303;28;20064;-65
2022/08/22 00:15:19;;;;;;;7.03;2.55;;;16.40;99.90;;;;;;5009638;28;20053;-66
2022/08/22 00:18:36;;;;;;;4.57;2.42;;;16.30;99.90;;;;;;5009028;28;20046;-65
2022/08/22 00:21:18;;;;;;;6.43;2.33;;;16.30;99.90;;;;;;4929555;29;20044;-65
2022/08/22 00:23:59;;;;;;;7.38;2.78;;;16.20;99.90;;;;;;4927595;29;20052;-65
2022/08/22 00:26:38;;;;;;;6.85;2.90;;;16.20;99.90;;;;;;4927971;29;20065;-67
2022/08/22 00:29:11;;;;;;;6.65;2.50;;;16.10;99.90;;;;;;4912750;29;20052;-64
2022/08/22 00:31:39;;;;;;;5.88;2.55;;;16.10;99.90;;;;;;4936558;28;20054;-65
2022/08/22 00:34:22;;;;;;;4.80;2.47;;;16.10;99.90;;;;;;5005979;28;20042;-65
2022/08/22 00:37:15;;;;;;;8.15;3.00;;;16.10;99.90;;;;;;5006358;28;20053;-65
2022/08/22 00:39:50;;;;;;;5.38;2.47;;;16.10;99.90;;;;;;4991302;28;20053;-64
2022/08/22 00:42:20;;;;;;;7.15;2.42;;;16.10;99.90;;;;;;5007839;28;20050;-65
2022/08/22 00:45:09;;;;;;;6.82;2.60;;;16.10;99.90;;;;;;4972735;28;20041;-67
2022/08/22 00:47:48;;;;;;;8.20;2.88;;;16.10;99.90;;;;;;5007878;28;20053;-65
2022/08/22 00:50:43;;;;;;;5.50;2.47;;;16.10;99.90;;;;;;5008457;28;20048;-65
2022/08/22 00:53:30;;;;;;;6.07;2.53;;;16.00;99.90;;;;;;4989901;28;20041;-65
2022/08/22 00:56:24;;;;;;;7.85;2.80;;;16.00;99.90;;;;;;5105829;28;20138;-64
2022/08/22 00:59:10;;;;;;;6.38;2.53;;;15.90;99.90;;;;;;5113832;28;20039;-67
2022/08/22 01:02:00;;;;;;;9.75;3.38;;;15.90;99.90;;;;;;5108398;28;20394;-64
2022/08/22 01:05:03;;;;;;;7.35;2.90;;;15.90;99.90;;;;;;5093546;28;20048;-64
2022/08/22 01:07:36;;;;;;;7.07;2.42;;;15.90;99.90;;;;;;5090679;28;20055;-63
2022/08/22 01:10:22;;;;;;;5.88;2.47;;;15.80;99.90;;;;;;5106192;28;20447;-65
2022/08/22 01:13:13;;;;;;;5.82;2.38;;;15.80;99.90;;;;;;5111300;28;20047;-65
2022/08/22 01:15:41;;;;;;;6.30;3.00;;;15.80;99.90;;;;;;5109178;28;20043;-64
2022/08/22 01:18:34;;;;;;;7.35;3.17;;;15.70;99.90;;;;;;5111632;28;20053;-65
2022/08/22 01:21:21;;;;;;;3.70;2.50;;;15.70;99.90;;;;;;5111595;28;20043;-64
2022/08/22 01:23:49;;;;;;;7.97;2.80;;;15.70;99.90;;;;;;5112258;28;20036;-65
2022/08/22 01:26:34;;;;;;;6.40;2.38;;;15.60;99.90;;;;;;5111269;28;20075;-65
2022/08/22 01:29:27;;;;;;;5.82;2.70;;;15.60;99.90;;;;;;5117458;27;20395;-66
2022/08/22 01:31:55;;;;;;;8.77;2.72;;;15.60;99.90;;;;;;5110169;28;20040;-64
2022/08/22 01:34:40;;;;;;;2.80;2.47;;;15.60;99.90;;;;;;5111150;28;20040;-64
2022/08/22 01:37:23;;;;;;;5.93;2.70;;;15.50;99.90;;;;;;5112849;28;20035;-64
2022/08/22 01:40:11;;;;;;;4.45;2.63;;;15.50;99.90;;;;;;5113652;27;20391;-64
2022/08/22 01:43:05;;;;;;;4.00;2.50;;;15.50;99.90;;;;;;5109465;28;20055;-67
2022/08/22 01:46:05;;;;;;;5.50;2.40;;;15.50;99.90;;;;;;5094174;28;20084;-65
2022/08/22 01:48:50;;;;;;;5.78;2.80;;;15.50;99.90;;;;;;5121176;27;20080;-63
2022/08/22 01:51:47;;;;;;;7.65;3.00;;;15.40;99.90;;;;;;5127559;27;20047;-64
2022/08/22 01:54:28;;;;;;;7.00;3.65;;;15.40;99.90;;;;;;5051632;28;20443;-65
2022/08/22 01:57:01;;;;;;;6.40;3.47;;;15.40;99.90;;;;;;5069142;28;20056;-65
2022/08/22 01:59:33;;;;;;;7.00;3.33;;;15.40;99.90;;;;;;5035642;28;20137;-65
2022/08/22 02:01:59;;;;;;;8.25;3.33;;;15.40;99.90;;;;;;5051826;28;20048;-64
2022/08/22 02:04:31;;;;;;;7.38;3.03;;;15.40;99.90;;;;;;5052685;28;20051;-64
2022/08/22 02:07:05;;;;;;;8.23;3.78;;;15.40;99.90;;;;;;5069728;28;20139;-65
2022/08/22 02:10:02;;;;;;;7.43;3.22;;;15.40;99.90;;;;;;5052489;28;20044;-65
2022/08/22 02:12:41;;;;;;;9.45;3.83;;;15.40;99.90;;;;;;5068283;28;20492;-64
2022/08/22 02:15:21;;;;;;;11.82;4.00;;;15.40;99.90;;;;;;5049177;28;20050;-64
2022/08/22 02:18:11;;;;;;;9.43;3.65;;;15.40;99.90;;;;;;5036105;28;20055;-65
2022/08/22 02:20:55;;;;;;;7.82;3.97;;;15.40;99.90;;;;;;5051970;28;20094;-64
2022/08/22 02:23:24;;;;;;;8.80;4.10;;;15.40;99.90;;;;;;5050485;28;20139;-63
2022/08/22 02:26:02;;;;;;;9.85;4.20;;;15.40;99.90;;;;;;5069239;28;20064;-63
2022/08/22 02:29:00;;;;;;;9.02;3.92;;;15.40;99.90;;;;;;5036489;28;20040;-64
2022/08/22 02:31:52;;;;;;;7.07;3.80;;;15.40;99.90;;;;;;5096794;27;20135;-66
2022/08/22 02:34:24;;;;;;;11.10;4.22;;;15.40;99.90;;;;;;5115472;27;20385;-66
2022/08/22 02:37:07;;;;;;;6.15;4.13;;;15.40;99.90;;;;;;5109336;28;20394;-65
2022/08/22 02:39:43;;;;;;;7.72;4.45;;;15.40;99.90;;;;;;5110038;27;20044;-65
2022/08/22 02:42:22;;;;;;;13.02;4.65;;;15.40;99.90;;;;;;5108532;28;20035;-64
2022/08/22 02:45:28;;;;;;;9.85;4.68;;;15.30;99.90;;;;;;5091274;28;20036;-65
2022/08/22 02:48:14;;;;;;;9.48;4.60;;;15.30;99.90;;;;;;5108882;28;20088;-66
2022/08/22 02:50:48;;;;;;;11.15;4.45;;;15.30;99.90;;;;;;5115105;27;20055;-63
2022/08/22 02:53:20;;;;;;;9.00;4.50;;;15.30;99.90;;;;;;5114703;27;20065;-63
2022/08/22 02:55:57;;;;;;;8.77;4.28;;;15.40;99.90;;;;;;5122802;27;20040;-65
2022/08/22 02:58:36;;;;;;;7.20;4.63;;;15.40;99.90;;;;;;5109206;28;20051;-65
2022/08/22 03:01:01;;;;;;;8.15;4.45;;;15.40;99.90;;;;;;5112772;27;20047;-64
2022/08/22 03:03:34;;;;;;;7.43;4.32;;;15.30;99.90;;;;;;5108661;28;20040;-65
2022/08/22 03:06:36;;;;;;;7.97;4.60;;;15.40;99.90;;;;;;5111891;27;20044;-64
2022/08/22 03:09:13;;;;;;;8.20;4.25;;;15.40;99.90;;;;;;5122286;27;20036;-63
2022/08/22 03:11:45;;;;;;;8.77;4.63;;;15.40;99.90;;;;;;5109347;28;20051;-65
2022/08/22 03:14:17;;;;;;;9.53;4.57;;;15.40;99.90;;;;;;5109107;27;20176;-66
2022/08/22 03:16:49;;;;;;;;;;;15.40;99.90;;;;;;5108329;28;20043;-64
2022/08/22 03:19:29;;;;;;;5.22;3.85;;;15.40;99.90;;;;;;5109331;28;19919;-65
2022/08/22 03:22:24;;;;;;;10.27;4.10;;;15.40;99.90;;;;;;5109616;28;20039;-64
2022/08/22 03:25:04;;;;;;;8.40;4.20;;;15.30;99.90;;;;;;5011400;28;20424;-64
2022/08/22 03:28:00;;;;;;;8.65;4.00;;;15.40;99.90;;;;;;5010484;28;20056;-67
2022/08/22 03:30:44;;;;;;;7.43;3.90;;;15.30;99.90;;;;;;5022397;28;20076;-65
2022/08/22 03:33:19;;;;;;;8.07;4.10;;;15.40;99.90;;;;;;5010538;28;20045;-67
2022/08/22 03:35:45;;;;;;;7.40;4.18;;;15.40;99.90;;;;;;5009903;28;20081;-66
2022/08/22 03:38:21;;;;;;;9.65;4.47;;;15.30;99.90;;;;;;5010687;28;20087;-65
2022/08/22 03:41:08;;;;;;;7.85;3.88;;;15.30;99.90;;;;;;5011185;28;20041;-65
2022/08/22 03:43:36;;;;;;;7.45;4.30;;;15.30;99.90;;;;;;5011108;28;20041;-64
2022/08/22 03:46:22;;;;;;;11.10;4.32;;;15.40;99.90;;;;;;5011115;28;20045;-64
2022/08/22 03:49:19;;;;;;;7.97;4.43;;;15.40;99.90;;;;;;5024161;28;20041;-65
2022/08/22 03:52:12;;;;;;;7.18;3.72;;;15.40;99.90;;;;;;5011204;28;20049;-64
2022/08/22 03:54:47;;;;;;;6.18;3.85;;;15.40;99.90;;;;;;5011172;28;20053;-66
2022/08/22 03:57:57;;;;;;;7.47;3.85;;;15.40;99.90;;;;;;5011516;28;20045;-64
2022/08/22 04:00:33;;;;;;;7.28;3.90;;;15.40;99.90;;;;;;4968480;28;20046;-65
2022/08/22 04:03:07;;;;;;;7.40;3.50;;;15.40;99.90;;;;;;5044078;28;20522;-65
2022/08/22 04:05:50;;;;;;;5.32;3.30;;;15.40;99.90;;;;;;5049306;28;20070;-65
2022/08/22 04:08:50;;;;;;;7.22;3.92;;;15.40;99.90;;;;;;5067545;28;20086;-63
2022/08/22 04:11:20;;;;;;;9.40;3.92;;;15.40;99.90;;;;;;5048712;28;20091;-63
2022/08/22 04:14:04;;;;;;;9.77;4.10;;;15.40;99.90;;;;;;5051466;28;20087;-65
2022/08/22 04:17:07;;;;;;;9.40;4.18;;;15.40;99.90;;;;;;5050948;28;20036;-66
2022/08/22 04:19:54;;;;;;;9.43;4.00;;;15.40;99.90;;;;;;5034275;28;20037;-64
2022/08/22 04:22:28;;;;;;;6.65;3.83;;;15.40;99.90;;;;;;5048838;28;20114;-66
2022/08/22 04:25:02;;;;;;;8.18;3.65;;;15.40;99.90;;;;;;5050337;28;20037;-66
2022/08/22 04:27:51;;;;;;;9.20;3.72;;;15.40;99.90;;;;;;5051107;28;20072;-66
2022/08/22 04:30:39;;;;;;;11.85;3.63;;;15.40;99.90;;;;;;5049466;28;20123;-65
2022/08/22 04:33:16;;;;;;;8.85;3.78;;;15.40;99.90;;;;;;5049054;28;20040;-65
2022/08/22 04:35:59;;;;;;;8.13;3.67;;;15.30;99.90;;;;;;5109136;28;20031;-66
2022/08/22 04:38:27;;;;;;;;;;;15.30;99.90;;;;;;5108688;28;20398;-64
2022/08/22 04:41:09;;;;;;;11.38;4.10;;;15.30;99.90;;;;;;5108754;28;19931;-64
2022/08/22 04:43:43;;;;;;;9.05;3.83;;;15.30;99.90;;;;;;5108379;28;20043;-65
2022/08/22 04:46:25;;;;;;;9.63;4.53;;;15.30;99.90;;;;;;5104950;28;20046;-64
2022/08/22 04:49:25;;;;;;;6.65;3.80;;;15.30;99.90;;;;;;5117675;27;20057;-66
2022/08/22 04:52:29;;;;;;;8.38;3.97;;;15.30;99.90;;;;;;5110430;28;20067;-64
2022/08/22 04:55:03;;;;;;;13.55;4.10;;;15.30;99.90;;;;;;5110171;28;20067;-64
2022/08/22 04:57:36;;;;;;;12.38;4.22;;;15.30;99.90;;;;;;5115596;27;20130;-65
2022/08/22 05:00:07;;;;;;;10.65;4.50;;;15.30;99.90;;;;;;5112024;28;20043;-65
2022/08/22 05:02:36;;;;;;;11.90;4.07;;;15.30;99.90;;;;;;5115294;27;20463;-66
2022/08/22 05:05:14;;;;;;;9.38;4.22;;;15.30;99.90;;;;;;5111143;28;20434;-64
2022/08/22 05:07:46;;;;;;;10.23;3.95;;;15.30;99.90;;;;;;5112091;28;20032;-64
2022/08/22 05:10:23;;;;;;;10.43;4.32;;;15.30;99.90;;;;;;5101818;28;20082;-67
2022/08/22 05:13:01;;;;;;;6.35;4.00;;;15.40;99.90;;;;;;5111169;28;20050;-64
2022/08/22 05:15:35;;;;;;;13.65;4.07;;;15.40;99.90;;;;;;5110460;28;20402;-64
2022/08/22 05:18:36;;;;;;;7.32;3.80;;;15.40;99.90;;;;;;5109331;28;20044;-65
2022/08/22 05:21:05;;;;;;;10.18;4.05;;;15.50;99.90;;;;;;5014403;28;20046;-65
2022/08/22 05:23:38;;;;;;;7.78;3.70;;;15.50;99.90;;;;;;4997185;28;20045;-65
2022/08/22 05:26:06;;;;;;;7.80;3.83;;;15.50;99.90;;;;;;5030601;28;20045;-65
2022/08/22 05:28:43;;;;;;;7.65;3.97;;;15.50;99.90;;;;;;5015461;28;20120;-65
2022/08/22 05:31:19;;;;;;;9.40;3.63;;;15.50;99.90;;;;;;4997851;28;20404;-64
2022/08/22 05:33:51;;;;;;;9.15;4.28;;;15.60;99.90;;;;;;5014240;28;20419;-65
2022/08/22 05:36:29;;;;;;;10.30;4.88;;;15.60;99.90;;;;;;4997441;28;20199;-65
2022/08/22 05:39:10;;;;;;;8.57;3.85;;;15.60;99.90;;;;;;5017718;28;20041;-62
2022/08/22 05:41:37;;;;;;;12.32;4.30;;;15.70;99.90;;;;;;5013751;28;20049;-65
2022/08/22 05:44:06;;;;;;;8.15;4.10;;;15.70;99.90;;;;;;5013344;28;20102;-65
2022/08/22 05:46:44;;;;;;;9.40;3.90;;;15.80;99.90;;;;;;5013978;28;20034;-66
2022/08/22 05:49:45;;;;;;;10.43;4.13;;;15.80;99.90;;;;;;5013401;28;20116;-66
2022/08/22 05:52:37;;;;;;;7.28;4.03;;;15.90;99.90;;;;;;5012625;28;20516;-67
2022/08/22 05:55:25;;;;;;;9.93;4.75;;;15.90;99.90;;;;;;5014010;28;20055;-65
2022/08/22 05:58:11;;;;;;;9.80;4.28;;;16.00;99.90;;;;;;5083910;27;20404;-67
2022/08/22 06:00:42;;;;;;;9.80;4.07;;;16.00;99.90;;;;;;5111094;28;20405;-64
2022/08/22 06:03:28;;;;;;;12.70;4.70;;;16.10;99.90;;;;;;5108710;28;20485;-66
2022/08/22 06:05:58;;;;;;;13.43;4.95;;;16.20;99.90;;;;;;5131631;27;20038;-65
2022/08/22 06:08:28;;;;;;;10.15;4.50;;;16.20;99.90;;;;;;5132108;27;20094;-66
2022/08/22 06:11:01;;;;;;;12.52;4.30;;;16.30;99.90;;;;;;5132084;27;20378;-67
2022/08/22 06:13:36;;;;;;;14.20;5.07;;;16.30;99.90;;;;;;5108518;28;20044;-63
2022/08/22 06:16:20;;;;;;;10.73;4.45;;;16.40;99.90;;;;;;5111223;28;20046;-65
2022/08/22 06:18:48;;;;;;;12.63;4.45;;;16.40;99.90;;;;;;5130002;27;20039;-65
2022/08/22 06:21:31;;;;;;;12.63;5.20;;;16.40;99.90;;;;;;5131946;27;20493;-65
2022/08/22 06:24:03;;;;;;;8.75;4.20;;;16.50;99.90;;;;;;5107249;27;20043;-64
2022/08/22 06:26:35;;;;;;;10.70;4.53;;;16.50;99.90;;;;;;5106219;28;20102;-63
2022/08/22 06:29:02;;;;;;;10.90;4.38;;;16.60;99.90;;;;;;5109375;28;22341;-66
2022/08/22 06:31:40;;;;;;;11.10;4.40;;;16.60;99.90;;;;;;5129244;27;20035;-67
2022/08/22 06:34:13;;;;;;;13.23;4.75;;;16.60;99.90;;;;;;5111814;27;20031;-65
2022/08/22 06:36:44;;;;;;;9.73;4.13;;;16.70;99.90;;;;;;5130246;27;20053;-64
2022/08/22 06:39:24;;;;;;;9.68;4.25;;;16.70;99.90;;;;;;5093384;28;20135;-65
2022/08/22 06:41:53;;;;;;;10.30;4.45;;;16.80;99.90;;;;;;5127696;27;20076;-66
2022/08/22 06:44:41;;;;;;;12.18;4.00;;;16.80;99.90;;;;;;5132362;27;20043;-65
2022/08/22 06:47:12;;;;;;;9.63;4.05;;;16.80;99.90;;;;;;5110661;27;20861;-64
2022/08/22 06:49:40;;;;;;;11.75;4.43;;;16.90;99.90;;;;;;5108353;28;20054;-66
2022/08/22 06:52:11;;;;;;;10.43;3.88;;;16.90;99.90;;;;;;5130289;27;20051;-64
2022/08/22 06:54:42;;;;;;;10.40;4.22;;;16.90;99.90;;;;;;5131417;27;20039;-65
2022/08/22 06:57:34;;;;;;;9.93;3.72;;;17.00;99.90;;;;;;5117169;27;20100;-66
2022/08/22 07:00:05;;;;;;;11.43;4.00;;;17.10;99.90;;;;;;5120757;27;20049;-65
2022/08/22 07:02:45;;;;;;;9.70;4.35;;;17.10;99.90;;;;;;5126805;27;20051;-64
2022/08/22 07:05:20;;;;;;;15.32;4.85;;;17.10;99.90;;;;;;5129670;27;20039;-66
2022/08/22 07:07:48;;;;;;;12.35;3.88;;;17.20;99.90;;;;;;5117996;27;20031;-65
2022/08/22 07:10:15;;;;;;;13.75;3.72;;;17.20;99.90;;;;;;5123914;27;20373;-67
2022/08/22 07:12:47;;;;;;;8.90;3.45;;;17.30;99.90;;;;;;5128010;27;20047;-66
2022/08/22 07:15:34;;;;;;;8.93;3.63;;;17.30;99.90;;;;;;5107583;28;20079;-66
2022/08/22 07:18:14;;;;;;;12.73;4.07;;;17.30;99.90;;;;;;5127663;27;20118;-67
2022/08/22 07:20:44;;;;;;;11.40;3.70;;;17.40;99.90;;;;;;5131345;27;20388;-66
2022/08/22 07:23:35;;;;;;;11.43;4.07;;;17.40;99.90;;;;;;5130810;27;20043;-67
2022/08/22 07:26:19;;;;;;;8.50;3.30;;;17.50;99.90;;;;;;5132149;27;20042;-68
2022/08/22 07:29:22;;;;;;;9.73;3.25;;;17.50;99.90;;;;;;5131418;27;20042;-66
2022/08/22 07:31:58;;;;;;;12.93;4.20;;;17.60;99.90;;;;;;5131072;27;20042;-65
2022/08/22 07:35:07;;;;;;;12.30;3.95;;;17.60;99.90;;;;;;5130634;27;20118;-66
2022/08/22 07:38:16;;;;;;;11.38;3.78;;;17.70;99.90;;;;;;5130620;27;20039;-68
2022/08/22 07:41:13;;;;;;;12.48;3.30;;;17.70;99.90;;;;;;5048337;28;20136;-64
2022/08/22 07:43:44;;;;;;;13.70;3.90;;;17.90;99.90;;;;;;4972889;28;20057;-68
2022/08/22 07:46:09;;;;;;;11.43;3.65;;;17.90;99.90;;;;;;4972738;28;20108;-66
2022/08/22 07:49:19;;;;;;;6.50;3.35;;;17.90;99.90;;;;;;4972992;28;20460;-67
2022/08/22 07:51:56;;;;;;;9.43;3.55;;;17.90;99.90;;;;;;4950363;29;20055;-67
2022/08/22 07:54:31;;;;;;;10.27;3.60;;;17.90;99.90;;;;;;4950315;29;20051;-66
2022/08/22 07:57:33;;;;;;;8.23;2.70;;;18.00;99.90;;;;;;4966699;28;20059;-66
2022/08/22 08:00:03;;;;;;;8.63;3.45;;;18.00;99.90;;;;;;4966013;28;20130;-66
2022/08/22 08:02:29;;;;;;;10.88;3.70;;;18.00;99.90;;;;;;4949875;29;20051;-67
2022/08/22 08:04:59;;;;;;;12.27;2.95;;;18.00;99.90;;;;;;4966428;28;20593;-65
2022/08/22 08:07:27;;;;;;;8.48;3.30;;;18.10;99.90;;;;;;4966461;28;20410;-66
2022/08/22 08:10:05;;;;;;;11.07;3.60;;;18.10;99.90;;;;;;4966680;28;20043;-68
2022/08/22 08:12:38;;;;;;;12.88;4.15;;;18.20;99.90;;;;;;4934365;29;20498;-66
2022/08/22 08:15:09;;;;;;;13.95;3.40;;;18.30;99.90;;;;;;4966275;28;20047;-67
2022/08/22 08:17:36;;;;;;;11.18;3.83;;;18.50;99.90;;;;;;4995634;28;20115;-64
2022/08/22 08:20:07;;;;;;;11.65;3.65;;;18.60;99.90;;;;;;5041209;28;20067;-67
2022/08/22 08:22:35;;;;;;;12.57;3.63;;;18.80;99.90;;;;;;5073871;28;20441;-67
2022/08/22 08:25:02;;;;;;;9.77;3.42;;;19.00;99.90;;;;;;5075704;28;20040;-67
2022/08/22 08:30:21;;;;;;;13.27;4.20;;;19.30;99.90;;;;;;5134160;27;20106;-65
2022/08/22 08:32:53;;;;;;;11.88;3.97;;;19.50;99.90;;;;;;5134357;27;20035;-66
2022/08/22 08:35:22;;;;;;;;;;;19.80;99.90;;;;;;5134764;27;20035;-66
2022/08/22 08:37:53;;;;;;;9.50;3.10;;;20.00;99.90;;;;;;5117070;27;19926;-66
2022/08/22 08:40:30;;;;;;;13.02;3.53;;;20.20;99.90;;;;;;5133966;27;20138;-66
2022/08/22 08:43:33;;;;;;;11.40;3.15;;;20.30;99.90;;;;;;5116858;27;20055;-66
2022/08/22 08:46:34;;;;;;;12.55;2.97;;;20.40;99.90;;;;;;5018582;28;20040;-66
2022/08/22 08:49:30;;;;;;;9.27;2.85;;;20.50;99.90;;;;;;5009945;28;20049;-65
2022/08/22 08:52:18;;;;;;;11.77;3.05;;;20.50;99.90;;;;;;5015265;28;20035;-65
2022/08/22 08:54:54;;;;;;;10.25;2.88;;;20.50;99.90;;;;;;5015102;28;20473;-67
2022/08/22 08:57:52;;;;;;;9.98;2.97;;;20.60;99.90;;;;;;5015132;28;20057;-69
2022/08/22 09:00:44;;;;;;;11.57;3.05;;;20.80;99.90;;;;;;5014887;28;20084;-69
2022/08/22 09:03:57;;;;;;;12.68;3.13;;;20.90;99.90;;;;;;5014750;28;20045;-65
2022/08/22 09:06:53;;;;;;;10.65;2.90;;;20.90;99.90;;;;;;4956803;28;20486;-67
2022/08/22 09:09:28;;;;;;;12.43;3.10;;;21.00;99.90;;;;;;4956334;28;20054;-67
2022/08/22 09:12:05;;;;;;;10.50;2.88;;;21.00;99.90;;;;;;4956847;28;20050;-67
2022/08/22 09:14:52;;;;;;;10.00;2.50;;;21.20;99.90;;;;;;4956444;28;20180;-66
2022/08/22 09:17:55;;;;;;;7.05;2.38;;;21.30;99.90;;;;;;4956216;28;20163;-67
2022/08/22 09:20:46;;;;;;;9.75;2.72;;;21.40;99.90;;;;;;4956468;28;20084;-67
2022/08/22 09:23:46;;;;;;;8.98;2.40;;;21.40;99.90;;;;;;5041961;28;20044;-66
2022/08/22 09:26:48;;;;;;;7.57;2.40;;;21.50;99.90;;;;;;5054288;28;20040;-69
2022/08/22 09:29:29;;;;;;;9.90;2.38;;;21.60;99.90;;;;;;5070363;28;20437;-67
2022/08/22 09:32:20;;;;;;;7.35;2.30;;;21.80;99.90;;;;;;5074444;28;20043;-67
2022/08/22 09:34:58;;;;;;;8.40;2.53;;;22.10;99.90;;;;;;5074229;28;20397;-66
2022/08/22 09:37:30;;;;;;;9.48;2.72;;;22.30;99.90;;;;;;5074287;28;20055;-67
2022/08/22 09:40:19;;;;;;;7.53;2.47;;;22.30;99.90;;;;;;5074123;28;20059;-69
2022/08/22 09:43:29;;;;;;;8.70;2.47;;;22.20;99.90;;;;;;5098645;27;20047;-66
2022/08/22 09:46:04;;;;;;;7.70;2.50;;;22.10;99.90;;;;;;5034339;28;20037;-67
2022/08/22 09:48:37;;;;;;;7.60;2.13;;;22.20;99.90;;;;;;5034210;28;20515;-67
2022/08/22 09:51:21;;;;;;;5.82;2.00;;;22.20;99.90;;;;;;5034070;28;20045;-67
2022/08/22 09:53:56;;;;;;;8.27;2.20;;;22.10;99.90;;;;;;5033737;28;20049;-67
2022/08/22 09:56:32;;;;;;;10.25;3.15;;;22.10;99.90;;;;;;5033933;28;20052;-67
2022/08/22 09:59:08;;;;;;;6.25;2.20;;;22.00;99.90;;;;;;5028887;28;20045;-68
2022/08/22 10:01:49;;;;;;;7.22;2.20;;;21.90;99.90;;;;;;5013901;28;20048;-69
2022/08/22 10:04:53;;;;;;;9.80;2.30;;;21.90;99.90;;;;;;5025517;28;20403;-66
2022/08/22 10:07:36;;;;;;;8.52;2.20;;;21.90;99.90;;;;;;5010968;28;20053;-66
2022/08/22 10:10:35;;;;;;;7.03;2.10;;;21.80;99.90;;;;;;5013962;28;20042;-67
2022/08/22 10:13:19;;;;;;;6.93;2.00;;;21.80;99.90;;;;;;5009667;28;20144;-66
2022/08/22 10:16:01;;;;;;;9.25;2.65;;;21.80;99.90;;;;;;5033506;28;20415;-66
2022/08/22 10:18:39;;;;;;;8.45;2.55;;;21.80;99.90;;;;;;5033963;28;20487;-67
2022/08/22 10:21:15;;;;;;;9.07;2.72;;;21.90;99.90;;;;;;5033300;28;20044;-66
2022/08/22 10:24:00;;;;;;;9.60;2.63;;;22.10;99.90;;;;;;5131992;27;20051;-66
2022/08/22 10:26:33;;;;;;;9.32;2.95;;;22.50;99.90;;;;;;5132353;27;20043;-66
2022/08/22 10:29:31;;;;;;;9.30;2.60;;;22.70;99.90;;;;;;5132081;27;20117;-67
2022/08/22 10:32:38;;;;;;;9.52;2.45;;;22.80;99.90;;;;;;5131844;27;20092;-67
2022/08/22 10:35:58;;;;;;;6.05;2.17;;;22.80;99.90;;;;;;5032967;28;20072;-67
2022/08/22 10:38:31;;;;;;;8.10;2.30;;;22.90;99.90;;;;;;4974168;28;20050;-66
2022/08/22 10:41:30;;;;;;;7.57;2.38;;;23.20;99.90;;;;;;4990230;28;20061;-67
2022/08/22 10:44:36;;;;;;;10.73;2.92;;;23.40;99.90;;;;;;4989732;28;20129;-67
2022/08/22 10:47:07;;;;;;;8.15;2.17;;;23.50;99.90;;;;;;4989722;28;20076;-67
2022/08/22 10:49:48;;;;;;;8.82;2.17;;;23.60;99.90;;;;;;4990174;28;20050;-68
2022/08/22 10:52:23;;;;;;;10.48;2.47;;;23.90;99.90;;;;;;4973955;28;20047;-67
2022/08/22 10:55:03;;;;;;;11.07;2.30;;;24.10;99.90;;;;;;4989981;28;20113;-66
2022/08/22 10:57:56;;;;;;;8.43;2.03;;;24.40;99.90;;;;;;4970982;28;20047;-67
2022/08/22 11:00:37;;;;;;;6.45;2.08;;;24.50;99.90;;;;;;4954404;28;20062;-67
2022/08/22 11:03:14;;;;;;;6.95;2.03;;;24.90;99.90;;;;;;4970451;28;20089;-66
2022/08/22 11:05:45;;;;;;;8.75;2.33;;;24.90;99.90;;;;;;5012666;28;20084;-67
2022/08/22 11:08:18;;;;;;;9.98;2.25;;;24.70;99.90;;;;;;5056171;28;20115;-67
2022/08/22 11:10:58;;;;;;;7.18;2.15;;;24.60;99.90;;;;;;5127577;27;20115;-68
2022/08/22 11:13:49;;;;;;;5.97;1.80;;;25.00;99.90;;;;;;5131212;27;20047;-66
2022/08/22 11:16:27;;;;;;;7.82;2.17;;;25.20;98.90;;;;;;5131387;27;20511;-67
2022/08/22 11:19:41;;;;;;;7.03;1.90;;;25.20;98.40;;;;;;5130850;27;20035;-67
2022/08/22 11:22:26;;;;;;;8.50;2.38;;;25.40;98.60;;;;;;5130818;27;20122;-68
2022/08/22 11:25:28;;;;;;;7.28;1.80;;;25.50;97.80;;;;;;5131185;27;20580;-66
2022/08/22 11:28:24;;;;;;;9.48;2.00;;;25.70;98.20;;;;;;5131152;27;20489;-66
2022/08/22 11:31:27;;;;;;;6.18;1.70;;;25.80;97.80;;;;;;5114175;27;20046;-67
2022/08/22 11:34:19;;;;;;;7.45;1.77;;;26.00;97.10;;;;;;5131048;27;20066;-67
2022/08/22 11:36:51;;;;;;;10.70;2.08;;;25.80;97.70;;;;;;5032279;28;20576;-66
2022/08/22 11:39:23;;;;;;;5.82;2.03;;;25.60;97.50;;;;;;5009442;28;20049;-65
2022/08/22 11:41:56;;;;;;;;;;;25.40;97.20;;;;;;5012616;28;20057;-66
2022/08/22 11:44:27;;;;;;;;;;;25.20;96.60;;;;;;5013053;28;20411;-65
2022/08/22 11:46:56;;;;;;;7.85;1.90;;;25.00;97.20;;;;;;5012168;28;19917;-66
2022/08/22 11:49:30;;;;;;;7.63;2.00;;;25.10;97.70;;;;;;4995288;28;20056;-66
2022/08/22 11:52:17;;;;;;;8.25;2.00;;;25.10;97.10;;;;;;5012022;28;20124;-67
2022/08/22 11:54:58;;;;;;;6.43;2.25;;;25.20;97.80;;;;;;5012222;28;20095;-67
2022/08/22 11:57:42;;;;;;;10.00;2.38;;;25.20;97.60;;;;;;5011112;28;20040;-68
2022/08/22 12:00:25;;;;;;;8.95;1.80;;;25.40;97.10;;;;;;5011759;28;20423;-66
2022/08/22 12:03:31;;;;;;;8.05;1.80;;;25.40;97.10;;;;;;5023879;28;20049;-68
2022/08/22 12:06:12;;;;;;;7.88;1.90;;;25.30;96.30;;;;;;5028524;28;20041;-66
2022/08/22 12:08:42;;;;;;;8.63;2.88;;;25.00;96.50;;;;;;5012044;28;20041;-66
2022/08/22 12:11:19;;;;;;;7.40;2.10;;;24.80;96.30;;;;;;5011746;28;20099;-67
2022/08/22 12:13:59;;;;;;;8.35;2.10;;;24.60;96.40;;;;;;5060504;28;20051;-67
2022/08/22 12:16:36;;;;;;;5.85;1.83;;;24.60;96.20;;;;;;5130010;27;20039;-66
2022/08/22 12:19:58;;;;;;;7.97;1.83;;;24.70;96.80;;;;;;5130400;28;20054;-67
2022/08/22 12:22:45;;;;;;;5.78;1.95;;;24.80;96.50;;;;;;5031353;28;20041;-67
2022/08/22 12:25:30;;;;;;;7.25;1.88;;;24.90;96.40;;;;;;5031462;28;20587;-66
2022/08/22 12:28:14;;;;;;;8.25;2.10;;;25.00;96.70;;;;;;5031359;28;20049;-66
2022/08/22 12:30:49;;;;;;;5.57;1.88;;;25.00;96.50;;;;;;5031594;28;20037;-67
2022/08/22 12:33:47;;;;;;;6.90;2.20;;;25.00;96.00;;;;;;5031299;28;20052;-67
2022/08/22 12:36:47;;;;;;;6.00;1.70;;;25.10;96.90;;;;;;5025698;28;20069;-68
2022/08/22 12:39:19;;;;;;;7.93;2.03;;;25.10;96.70;;;;;;5011570;28;20048;-65
2022/08/22 12:42:16;;;;;;;7.25;1.88;;;25.00;96.00;;;;;;5011260;28;20132;-66
2022/08/22 12:45:00;;;;;;;9.35;2.60;;;24.90;96.30;;;;;;5011770;28;20077;-66
2022/08/22 12:47:49;;;;;;;6.32;1.88;;;24.90;96.60;;;;;;5011345;28;20072;-66
2022/08/22 12:50:34;;;;;;;7.35;2.33;;;25.00;96.50;;;;;;5025089;28;20029;-66
2022/08/22 12:53:36;;;;;;;8.65;2.00;;;25.00;96.40;;;;;;5051095;28;20051;-66
2022/08/22 12:56:13;;;;;;;7.95;2.20;;;24.90;96.50;;;;;;5109671;28;20114;-67
2022/08/22 12:58:58;;;;;;;6.93;1.92;;;24.80;95.80;;;;;;5109324;28;20035;-66
2022/08/22 13:01:24;;;;;;;7.40;2.05;;;24.80;95.60;;;;;;5127941;28;20051;-67
2022/08/22 13:03:58;;;;;;;8.98;2.10;;;24.70;95.20;;;;;;5129640;28;20039;-67
2022/08/22 13:06:32;;;;;;;4.93;1.75;;;24.70;95.60;;;;;;5129616;28;20052;-67
2022/08/22 13:08:59;;;;;;;7.13;2.03;;;24.70;95.00;;;;;;5132969;27;20043;-67
2022/08/22 13:11:26;;;;;;;6.40;1.85;;;24.60;95.40;;;;;;5133767;27;20035;-67
2022/08/22 13:13:57;;;;;;;9.18;2.33;;;24.60;95.70;;;;;;5133563;27;20112;-64
2022/08/22 13:16:34;;;;;;;9.45;2.20;;;24.50;95.50;;;;;;5133436;27;20069;-67
2022/08/22 13:19:05;;;;;;;5.93;1.80;;;24.40;95.90;;;;;;5122156;27;20048;-67
2022/08/22 13:21:37;;;;;;;8.85;1.65;;;24.40;95.90;;;;;;5131688;27;20043;-66
2022/08/22 13:24:15;;;;;;;7.88;2.30;;;24.50;95.90;;;;;;5133424;27;20039;-66
2022/08/22 13:26:52;;;;;;;7.05;2.30;;;24.50;96.20;;;;;;5133354;27;20031;-66
2022/08/22 13:29:26;;;;;;;6.45;2.00;;;24.60;95.80;;;;;;5133334;27;20045;-69
2022/08/22 13:31:58;;;;;;;6.97;2.10;;;24.60;95.10;;;;;;5133139;27;20110;-67
2022/08/22 13:34:43;;;;;;;5.53;1.98;;;24.70;95.60;;;;;;5133159;27;20086;-68
2022/08/22 13:37:21;;;;;;;6.35;2.00;;;24.70;95.70;;;;;;5133333;27;20085;-67
2022/08/22 13:39:49;;;;;;;8.07;2.17;;;24.60;95.90;;;;;;5115902;27;20481;-67
2022/08/22 13:42:23;;;;;;;5.22;1.92;;;24.70;95.70;;;;;;5115810;27;20118;-67
2022/08/22 13:44:54;;;;;;;10.25;2.10;;;24.60;95.50;;;;;;5115796;27;20039;-65
2022/08/22 13:47:22;;;;;;;10.80;1.77;;;24.70;95.90;;;;;;5132988;27;20035;-68
2022/08/22 13:49:51;;;;;;;9.30;2.10;;;24.80;95.70;;;;;;5132686;27;20074;-66
2022/08/22 13:52:50;;;;;;;7.50;1.90;;;24.80;95.30;;;;;;5133202;27;20564;-67
2022/08/22 13:55:18;;;;;;;5.70;2.00;;;24.70;95.00;;;;;;5132535;27;20055;-67
2022/08/22 13:57:52;;;;;;;8.65;2.05;;;24.60;95.30;;;;;;5115454;27;20086;-67
2022/08/22 14:00:18;;;;;;;6.93;2.00;;;24.40;94.80;;;;;;5132704;27;20043;-68
2022/08/22 14:02:56;;;;;;;6.00;2.30;;;24.40;95.20;;;;;;5115257;27;20039;-67